Time,TemperatureF,DewpointF,PressureIn,WindDirection,WindDirectionDegrees,WindSpeedMPH,WindSpeedGustMPH,Humidity,HourlyPrecipIn,Conditions,Clouds,dailyrainin,SoftwareType,DateUTC
2013-09-18 00:06:00,57.4,51.0,30.30,SSE,165,0.0,1.0,79,0.00,,,0.00,weatherlink.com 1.10,2013-09-18 04:06:00,
2013-09-18 00:21:00,56.9,51.0,30.31,SSE,167,0.0,1.0,80,0.00,,,0.00,weatherlink.com 1.10,2013-09-18 04:21:00,
2013-09-18 00:36:00,56.4,50.0,30.30,South,184,0.0,0.0,80,0.00,,,0.00,weatherlink.com 1.10,2013-09-18 04:36:00,
2013-09-18 00:51:00,55.9,50.0,30.30,SSW,203,0.0,2.0,81,0.00,,,0.00,weatherlink.com 1.10,2013-09-18 04:51:00,
2013-09-18 01:06:00,55.3,50.0,30.30,SSW,203,0.0,0.0,81,0.00,,,0.00,weatherlink.com 1.10,2013-09-18 05:06:00,
2013-09-18 01:21:00,54.8,49.0,30.30,SSW,203,0.0,0.0,81,0.00,,,0.00,weatherlink.com 1.10,2013-09-18 05:21:00,
2013-09-18 01:36:00,54.5,49.0,30.31,SW,224,0.0,1.0,82,0.00,,,0.00,weatherlink.com 1.10,2013-09-18 05:36:00,
2013-09-18 01:51:00,53.9,49.0,30.31,WSW,256,0.0,0.0,84,0.00,,,0.00,weatherlink.com 1.10,2013-09-18 05:51:00,
2013-09-18 02:06:00,53.8,49.0,30.31,West,275,0.0,0.0,84,0.00,,,0.00,weatherlink.com 1.10,2013-09-18 06:06:00,
2013-09-18 02:21:00,53.6,49.0,30.31,West,275,0.0,1.0,85,0.00,,,0.00,weatherlink.com 1.10,2013-09-18 06:21:00,
2013-09-18 02:36:00,53.2,50.0,30.30,West,275,0.0,0.0,87,0.00,,,0.00,weatherlink.com 1.10,2013-09-18 06:36:00,
2013-09-18 02:51:00,53.6,50.0,30.30,West,275,0.0,0.0,88,0.00,,,0.00,weatherlink.com 1.10,2013-09-18 06:51:00,
2013-09-18 03:06:00,53.9,50.0,30.30,West,275,0.0,0.0,87,0.00,,,0.00,weatherlink.com 1.10,2013-09-18 07:06:00,
2013-09-18 03:21:00,54.1,50.0,30.30,West,274,0.0,0.0,86,0.00,,,0.00,weatherlink.com 1.10,2013-09-18 07:21:00,
2013-09-18 03:36:00,54.5,50.0,30.30,West,281,0.0,1.0,86,0.00,,,0.00,weatherlink.com 1.10,2013-09-18 07:36:00,
2013-09-18 03:51:00,54.7,49.0,30.29,West,281,0.0,0.0,82,0.00,,,0.00,weatherlink.com 1.10,2013-09-18 07:51:00,
2013-09-18 04:06:00,54.9,49.0,30.30,West,281,0.0,0.0,81,0.00,,,0.00,weatherlink.com 1.10,2013-09-18 08:06:00,
2013-09-18 04:21:00,55.1,49.0,30.29,West,281,0.0,0.0,81,0.00,,,0.00,weatherlink.com 1.10,2013-09-18 08:21:00,
2013-09-18 04:36:00,55.1,49.0,30.29,West,281,0.0,0.0,81,0.00,,,0.00,weatherlink.com 1.10,2013-09-18 08:36:00,
2013-09-18 04:51:00,55.1,49.0,30.29,SSE,158,0.0,1.0,81,0.00,,,0.00,weatherlink.com 1.10,2013-09-18 08:51:00,
2013-09-18 05:06:00,55.0,50.0,30.28,SW,220,0.0,4.0,82,0.00,,,0.00,weatherlink.com 1.10,2013-09-18 09:06:00,
2013-09-18 05:21:00,54.8,49.0,30.29,SW,220,0.0,0.0,82,0.00,,,0.00,weatherlink.com 1.10,2013-09-18 09:21:00,
2013-09-18 05:36:00,54.6,50.0,30.29,South,184,0.0,0.0,83,0.00,,,0.00,weatherlink.com 1.10,2013-09-18 09:36:00,
2013-09-18 05:51:00,54.6,50.0,30.30,South,184,0.0,0.0,84,0.00,,,0.00,weatherlink.com 1.10,2013-09-18 09:51:00,
2013-09-18 06:06:00,54.6,50.0,30.30,West,270,0.0,0.0,84,0.00,,,0.00,weatherlink.com 1.10,2013-09-18 10:06:00,
2013-09-18 06:21:00,54.5,50.0,30.30,West,270,0.0,0.0,85,0.00,,,0.00,weatherlink.com 1.10,2013-09-18 10:21:00,
2013-09-18 06:36:00,54.3,50.0,30.30,West,270,0.0,0.0,85,0.00,,,0.00,weatherlink.com 1.10,2013-09-18 10:36:00,
2013-09-18 06:51:00,54.2,50.0,30.30,West,270,0.0,0.0,86,0.00,,,0.00,weatherlink.com 1.10,2013-09-18 10:51:00,
2013-09-18 07:06:00,54.0,50.0,30.30,West,270,0.0,0.0,87,0.00,,,0.00,weatherlink.com 1.10,2013-09-18 11:06:00,
2013-09-18 07:21:00,53.7,50.0,30.30,West,270,0.0,0.0,87,0.00,,,0.00,weatherlink.com 1.10,2013-09-18 11:21:00,
2013-09-18 07:36:00,53.4,50.0,30.30,West,270,0.0,0.0,88,0.00,,,0.00,weatherlink.com 1.10,2013-09-18 11:36:00,
2013-09-18 07:51:00,53.6,51.0,30.31,West,270,0.0,0.0,89,0.00,,,0.00,weatherlink.com 1.10,2013-09-18 11:51:00,
2013-09-18 08:06:00,54.1,50.0,30.31,West,270,0.0,0.0,87,0.00,,,0.00,weatherlink.com 1.10,2013-09-18 12:06:00,
2013-09-18 08:21:00,54.2,51.0,30.32,West,270,0.0,0.0,88,0.00,,,0.00,weatherlink.com 1.10,2013-09-18 12:21:00,
2013-09-18 08:36:00,53.9,51.0,30.32,West,270,0.0,0.0,88,0.00,,,0.00,weatherlink.com 1.10,2013-09-18 12:36:00,
2013-09-18 08:51:00,54.1,50.0,30.32,West,270,1.0,1.0,87,0.00,,,0.00,weatherlink.com 1.10,2013-09-18 12:51:00,
2013-09-18 09:06:00,55.4,51.0,30.32,West,267,0.0,1.0,84,0.00,,,0.00,weatherlink.com 1.10,2013-09-18 13:06:00,
2013-09-18 09:21:00,56.6,52.0,30.32,SSE,149,0.0,1.0,83,0.00,,,0.00,weatherlink.com 1.10,2013-09-18 13:21:00,
2013-09-18 09:36:00,57.1,52.0,30.32,West,267,0.0,1.0,82,0.00,,,0.00,weatherlink.com 1.10,2013-09-18 13:36:00,
2013-09-18 09:51:00,57.6,51.0,30.32,South,178,1.0,3.0,79,0.00,,,0.00,weatherlink.com 1.10,2013-09-18 13:51:00,
2013-09-18 10:07:00,58.1,51.0,30.32,SW,218,0.0,4.0,76,0.00,,,0.00,weatherlink.com 1.10,2013-09-18 14:07:00,
2013-09-18 10:22:00,58.3,50.0,30.32,SSW,205,3.0,4.0,75,0.00,,,0.00,weatherlink.com 1.10,2013-09-18 14:22:00,
2013-09-18 10:37:00,59.3,51.0,30.32,SW,218,2.0,5.0,75,0.00,,,0.00,weatherlink.com 1.10,2013-09-18 14:37:00,
2013-09-18 10:52:00,60.3,51.0,30.32,SSW,199,1.0,4.0,72,0.00,,,0.00,weatherlink.com 1.10,2013-09-18 14:52:00,
2013-09-18 11:07:00,60.5,51.0,30.32,ENE,59,0.0,1.0,71,0.00,,,0.00,weatherlink.com 1.10,2013-09-18 15:07:00,
2013-09-18 11:22:00,60.4,51.0,30.31,SE,125,0.0,1.0,72,0.00,,,0.00,weatherlink.com 1.10,2013-09-18 15:22:00,
2013-09-18 11:37:00,60.4,51.0,30.31,South,183,2.0,2.0,71,0.00,,,0.00,weatherlink.com 1.10,2013-09-18 15:37:00,
2013-09-18 11:52:00,60.3,52.0,30.30,NW,304,0.0,1.0,73,0.00,,,0.00,weatherlink.com 1.10,2013-09-18 15:52:00,
2013-09-18 12:07:00,60.5,51.0,30.30,SSE,157,1.0,3.0,72,0.00,,,0.00,weatherlink.com 1.10,2013-09-18 16:07:00,
2013-09-18 12:37:00,61.1,52.0,30.29,ENE,67,1.0,1.0,72,0.00,,,0.00,weatherlink.com 1.10,2013-09-18 16:37:00,
2013-09-18 12:52:00,61.7,52.0,30.28,ENE,66,1.0,1.0,70,0.00,,,0.00,weatherlink.com 1.10,2013-09-18 16:52:00,
2013-09-18 13:07:00,62.1,52.0,30.28,WSW,237,0.0,2.0,70,0.00,,,0.00,weatherlink.com 1.10,2013-09-18 17:07:00,
2013-09-18 13:22:00,62.5,52.0,30.27,NNE,25,0.0,3.0,69,0.00,,,0.00,weatherlink.com 1.10,2013-09-18 17:22:00,
2013-09-18 13:37:00,62.7,53.0,30.26,ENE,67,0.0,3.0,70,0.00,,,0.00,weatherlink.com 1.10,2013-09-18 17:37:00,
2013-09-18 13:52:00,63.9,53.0,30.26,NE,46,0.0,3.0,68,0.00,,,0.00,weatherlink.com 1.10,2013-09-18 17:52:00,
2013-09-18 14:07:00,64.0,54.0,30.25,NNE,22,1.0,1.0,69,0.00,,,0.00,weatherlink.com 1.10,2013-09-18 18:07:00,
2013-09-18 14:22:00,64.3,54.0,30.24,ESE,112,0.0,3.0,69,0.00,,,0.00,weatherlink.com 1.10,2013-09-18 18:22:00,
2013-09-18 14:37:00,64.2,54.0,30.24,ESE,118,0.0,3.0,69,0.00,,,0.00,weatherlink.com 1.10,2013-09-18 18:37:00,
2013-09-18 14:52:00,64.9,54.0,30.23,South,176,0.0,3.0,67,0.00,,,0.00,weatherlink.com 1.10,2013-09-18 18:52:00,
2013-09-18 15:07:00,65.8,54.0,30.23,NNE,32,0.0,2.0,67,0.00,,,0.00,weatherlink.com 1.10,2013-09-18 19:07:00,
2013-09-18 15:22:00,66.8,54.0,30.22,SSW,209,3.0,4.0,64,0.00,,,0.00,weatherlink.com 1.10,2013-09-18 19:22:00,
2013-09-18 15:37:00,66.8,55.0,30.22,West,270,1.0,3.0,65,0.00,,,0.00,weatherlink.com 1.10,2013-09-18 19:37:00,
2013-09-18 15:52:00,66.2,54.0,30.21,WNW,286,1.0,2.0,66,0.00,,,0.00,weatherlink.com 1.10,2013-09-18 19:52:00,
2013-09-18 16:07:00,65.9,55.0,30.21,SSW,205,0.0,3.0,67,0.00,,,0.00,weatherlink.com 1.10,2013-09-18 20:07:00,
2013-09-18 16:22:00,66.0,56.0,30.21,ENE,64,0.0,1.0,69,0.00,,,0.00,weatherlink.com 1.10,2013-09-18 20:22:00,
2013-09-18 16:37:00,66.3,55.0,30.20,ENE,76,0.0,1.0,68,0.00,,,0.00,weatherlink.com 1.10,2013-09-18 20:37:00,
2013-09-18 16:52:00,66.0,55.0,30.20,West,278,0.0,1.0,67,0.00,,,0.00,weatherlink.com 1.10,2013-09-18 20:52:00,
2013-09-18 17:07:00,66.2,55.0,30.20,SSW,198,1.0,4.0,68,0.00,,,0.00,weatherlink.com 1.10,2013-09-18 21:07:00,
2013-09-18 17:52:00,66.0,55.0,30.19,SSW,196,0.0,2.0,67,0.00,,,0.00,weatherlink.com 1.10,2013-09-18 21:52:00,
2013-09-18 18:07:00,66.1,56.0,30.19,SSW,196,0.0,0.0,71,0.00,,,0.00,weatherlink.com 1.10,2013-09-18 22:07:00,
2013-09-18 18:22:00,65.9,57.0,30.19,SSW,196,0.0,0.0,72,0.00,,,0.00,weatherlink.com 1.10,2013-09-18 22:22:00,
2013-09-18 18:37:00,65.9,57.0,30.19,SSW,196,0.0,0.0,73,0.00,,,0.00,weatherlink.com 1.10,2013-09-18 22:37:00,
2013-09-18 18:52:00,65.6,58.0,30.19,SSW,196,0.0,0.0,75,0.00,,,0.00,weatherlink.com 1.10,2013-09-18 22:52:00,
2013-09-18 19:07:00,64.8,57.0,30.19,SSW,196,0.0,0.0,76,0.00,,,0.00,weatherlink.com 1.10,2013-09-18 23:07:00,
2013-09-18 19:23:00,64.1,57.0,30.19,SSW,196,0.0,0.0,78,0.00,,,0.00,weatherlink.com 1.10,2013-09-18 23:23:00,
2013-09-18 19:38:00,63.7,57.0,30.19,SSW,196,0.0,0.0,78,0.00,,,0.00,weatherlink.com 1.10,2013-09-18 23:38:00,
2013-09-18 19:52:00,63.6,57.0,30.19,SSW,196,0.0,0.0,79,0.00,,,0.00,weatherlink.com 1.10,2013-09-18 23:52:00,
2013-09-18 20:08:00,63.4,57.0,30.19,SSW,196,0.0,0.0,79,0.00,,,0.00,weatherlink.com 1.10,2013-09-19 00:08:00,
2013-09-18 20:23:00,63.2,57.0,30.19,SSW,196,0.0,0.0,79,0.00,,,0.00,weatherlink.com 1.10,2013-09-19 00:23:00,
2013-09-18 20:38:00,63.1,58.0,30.19,SSW,196,0.0,0.0,82,0.00,,,0.00,weatherlink.com 1.10,2013-09-19 00:38:00,
2013-09-18 20:53:00,62.9,58.0,30.20,SSW,196,0.0,0.0,83,0.00,,,0.00,weatherlink.com 1.10,2013-09-19 00:53:00,
2013-09-18 21:08:00,62.7,58.0,30.20,SSW,196,0.0,0.0,84,0.00,,,0.00,weatherlink.com 1.10,2013-09-19 01:08:00,
2013-09-18 21:23:00,62.8,58.0,30.20,South,185,0.0,2.0,84,0.00,,,0.00,weatherlink.com 1.10,2013-09-19 01:23:00,
2013-09-18 21:38:00,62.6,58.0,30.20,South,185,0.0,0.0,84,0.00,,,0.00,weatherlink.com 1.10,2013-09-19 01:38:00,
2013-09-18 21:53:00,62.5,58.0,30.20,South,185,0.0,0.0,85,0.00,,,0.00,weatherlink.com 1.10,2013-09-19 01:53:00,
2013-09-18 22:08:00,62.3,58.0,30.20,South,185,0.0,0.0,85,0.00,,,0.00,weatherlink.com 1.10,2013-09-19 02:08:00,
2013-09-18 22:23:00,62.1,58.0,30.20,South,185,0.0,0.0,86,0.00,,,0.00,weatherlink.com 1.10,2013-09-19 02:23:00,
2013-09-18 22:38:00,62.0,58.0,30.20,South,185,0.0,0.0,86,0.00,,,0.00,weatherlink.com 1.10,2013-09-19 02:38:00,
2013-09-18 22:53:00,62.0,58.0,30.20,South,185,0.0,0.0,87,0.00,,,0.00,weatherlink.com 1.10,2013-09-19 02:53:00,
2013-09-18 23:23:00,61.6,57.0,30.20,South,185,0.0,0.0,86,0.00,,,0.00,weatherlink.com 1.10,2013-09-19 03:23:00,
2013-09-18 23:38:00,61.7,58.0,30.19,SE,142,0.0,1.0,87,0.00,,,0.00,weatherlink.com 1.10,2013-09-19 03:38:00,
2013-09-18 23:53:00,61.8,58.0,30.20,SE,142,0.0,0.0,87,0.00,,,0.00,weatherlink.com 1.10,2013-09-19 03:53:00,